createdAt,value
2023-11-08T00:00:07.127Z,95175.02
2023-11-08T00:02:35.358Z,95181.00
2023-11-08T00:05:04.551Z,95177.24
2023-11-08T00:07:33.051Z,95177.30
2023-11-08T00:10:01.184Z,95178.84
2023-11-08T00:12:28.985Z,95178.13
2023-11-08T00:14:58.640Z,95180.24
2023-11-08T00:17:27.198Z,95182.17
2023-11-08T00:19:55.869Z,95182.48
2023-11-08T00:22:25.023Z,95183.17
2023-11-08T00:24:52.868Z,95181.61
2023-11-08T00:27:21.124Z,95183.61
2023-11-08T00:29:49.578Z,95182.29
2023-11-08T00:32:22.660Z,95180.67
2023-11-08T00:34:51.876Z,95184.33
2023-11-08T00:37:20.778Z,95193.15
2023-11-08T00:39:48.979Z,95195.23
2023-11-08T00:42:16.958Z,95193.42
2023-11-08T00:44:44.763Z,95194.89
2023-11-08T00:47:12.659Z,95199.77
2023-11-08T00:49:40.909Z,95199.09
2023-11-08T00:52:09.536Z,95202.64
2023-11-08T00:54:38.986Z,95209.02
2023-11-08T00:57:09.627Z,95208.36
2023-11-08T00:59:37.629Z,95214.36
2023-11-08T01:02:05.562Z,95217.41
2023-11-08T01:04:34.654Z,95222.77
2023-11-08T01:07:03.222Z,95221.23
2023-11-08T01:09:31.087Z,95219.00
2023-11-08T01:12:00.159Z,95216.96
2023-11-08T01:14:27.973Z,95213.47
2023-11-08T01:16:55.651Z,95216.04
2023-11-08T01:19:26.137Z,95212.27
2023-11-08T01:21:54.211Z,95217.79
2023-11-08T01:24:23.987Z,95219.60
2023-11-08T01:26:52.168Z,95217.98
2023-11-08T01:29:20.027Z,95217.23
2023-11-08T01:31:48.948Z,95215.40
2023-11-08T01:34:16.907Z,95215.57
2023-11-08T01:36:46.204Z,95215.23
2023-11-08T01:39:14.743Z,95216.29
2023-11-08T01:41:46.903Z,95215.71
2023-11-08T01:44:17.434Z,95215.02
2023-11-08T01:46:47.766Z,95213.59
2023-11-08T01:49:16.321Z,95211.98
2023-11-08T01:51:44.378Z,95209.79
2023-11-08T01:54:14.649Z,95209.36
2023-11-08T01:56:45.498Z,95207.58
2023-11-08T01:59:19.368Z,95208.08
2023-11-08T02:01:47.335Z,95206.10
2023-11-08T02:04:16.840Z,95206.77
2023-11-08T02:06:45.432Z,95215.96
2023-11-08T02:09:13.859Z,95220.30
2023-11-08T02:11:42.405Z,95220.05
2023-11-08T02:14:10.831Z,95222.10
2023-11-08T02:16:39.193Z,95223.75
2023-11-08T02:19:09.089Z,95225.92
2023-11-08T02:21:37.064Z,95229.29
2023-11-08T02:24:19.065Z,95225.16
2023-11-08T02:26:51.011Z,95227.88
2023-11-08T02:29:20.973Z,95228.59
2023-11-08T02:31:52.174Z,95228.32
2023-11-08T02:34:21.211Z,95231.02
2023-11-08T02:36:50.683Z,95230.71
2023-11-08T02:39:20.170Z,95233.21
2023-11-08T02:41:49.082Z,95234.09
2023-11-08T02:44:17.055Z,95233.30
2023-11-08T02:46:45.490Z,95236.21
2023-11-08T02:49:15.138Z,95239.83
2023-11-08T02:51:44.506Z,95243.11
2023-11-08T02:54:12.286Z,95245.67
2023-11-08T02:56:42.267Z,95249.06
2023-11-08T02:59:10.965Z,95248.11
2023-11-08T03:01:39.246Z,95249.39
2023-11-08T03:04:08.006Z,95251.98
2023-11-08T03:06:36.291Z,95251.28
2023-11-08T03:09:07.452Z,95252.25
2023-11-08T03:11:37.377Z,95253.47
2023-11-08T03:14:07.608Z,95252.52
2023-11-08T03:16:36.450Z,95256.48
2023-11-08T03:19:04.670Z,95259.43
2023-11-08T03:21:32.786Z,95257.10
2023-11-08T03:24:02.362Z,95255.93
2023-11-08T03:26:31.293Z,95258.33
2023-11-08T03:28:59.438Z,95260.05
2023-11-08T03:31:28.022Z,95256.99
2023-11-08T03:33:57.605Z,95255.38
2023-11-08T03:36:26.560Z,95255.65
2023-11-08T03:38:54.992Z,95252.16
2023-11-08T03:41:26.096Z,95252.14
2023-11-08T03:43:54.999Z,95250.96
2023-11-08T03:46:22.792Z,95255.33
2023-11-08T03:48:54.917Z,95254.63
2023-11-08T03:51:23.402Z,95262.14
2023-11-08T03:53:52.223Z,95262.94
2023-11-08T03:56:20.452Z,95262.23
2023-11-08T03:58:48.357Z,95264.34
2023-11-08T04:01:17.230Z,95261.80
2023-11-08T04:03:45.105Z,95256.70
2023-11-08T04:06:13.292Z,95261.25
2023-11-08T04:08:41.173Z,95267.41
2023-11-08T04:11:08.896Z,95265.55
2023-11-08T04:13:36.424Z,95264.61
2023-11-08T04:16:04.804Z,95260.73
2023-11-08T04:18:34.632Z,95262.08
2023-11-08T04:21:05.558Z,95266.07
2023-11-08T04:23:33.400Z,95262.98
2023-11-08T04:26:01.464Z,95260.04
2023-11-08T04:28:29.422Z,95258.95
2023-11-08T04:30:57.120Z,95256.46
2023-11-08T04:33:25.483Z,95260.13
2023-11-08T04:35:55.365Z,95259.90
2023-11-08T04:38:23.452Z,95255.73
2023-11-08T04:40:51.132Z,95254.56
2023-11-08T04:43:19.503Z,95259.30
2023-11-08T04:45:47.260Z,95268.14
2023-11-08T04:48:15.231Z,95270.15
2023-11-08T04:50:43.118Z,95265.57
2023-11-08T04:53:10.987Z,95266.20
2023-11-08T04:55:39.047Z,95267.52
2023-11-08T04:58:07.641Z,95265.02
2023-11-08T05:00:35.290Z,95263.86
2023-11-08T05:03:03.075Z,95268.63
2023-11-08T05:05:30.908Z,95264.66
2023-11-08T05:07:58.513Z,95261.52
2023-11-08T05:10:26.168Z,95259.50
2023-11-08T05:12:54.014Z,95259.33
2023-11-08T05:15:21.784Z,95266.48
2023-11-08T05:17:49.455Z,95265.73
2023-11-08T05:20:17.064Z,95269.61
2023-11-08T05:22:45.276Z,95277.95
2023-11-08T05:25:15.872Z,95276.87
2023-11-08T05:27:44.701Z,95280.10
2023-11-08T05:30:12.928Z,95282.63
2023-11-08T05:32:40.842Z,95284.96
2023-11-08T05:35:09.046Z,95285.48
2023-11-08T05:37:36.732Z,95286.59
2023-11-08T05:40:05.243Z,95289.55
2023-11-08T05:42:33.285Z,95288.21
2023-11-08T05:45:01.285Z,95288.46
2023-11-08T05:47:29.282Z,95293.20
2023-11-08T05:49:57.808Z,95292.52
2023-11-08T05:52:25.644Z,95293.55
2023-11-08T05:54:53.463Z,95294.54
2023-11-08T05:57:21.283Z,95301.23
2023-11-08T05:59:49.392Z,95295.17
2023-11-08T06:02:17.931Z,95298.77
2023-11-08T06:04:45.823Z,95297.55
2023-11-08T06:07:14.136Z,95294.02
2023-11-08T06:09:44.722Z,95296.49
2023-11-08T06:12:12.589Z,95291.92
2023-11-08T06:14:40.205Z,95291.90
2023-11-08T06:17:08.137Z,95290.27
2023-11-08T06:19:35.921Z,95295.16
2023-11-08T06:22:04.887Z,95299.95
2023-11-08T06:24:32.771Z,95301.09
2023-11-08T06:27:02.291Z,95301.02
2023-11-08T06:29:30.392Z,95307.55
2023-11-08T06:31:58.487Z,95306.95
2023-11-08T06:34:26.231Z,95310.69
2023-11-08T06:36:54.619Z,95308.60
2023-11-08T06:39:22.675Z,95308.93
2023-11-08T06:41:51.482Z,95311.92
2023-11-08T06:44:20.290Z,95313.12
2023-11-08T06:46:48.075Z,95318.93
2023-11-08T06:49:16.749Z,95325.44
2023-11-08T06:51:45.236Z,95332.45
2023-11-08T06:54:14.479Z,95342.48
2023-11-08T06:56:42.766Z,95346.52
2023-11-08T06:59:11.055Z,95350.59
2023-11-08T07:01:39.156Z,95352.54
2023-11-08T07:04:07.431Z,95354.16
2023-11-08T07:06:35.613Z,95366.17
2023-11-08T07:09:03.895Z,95365.29
2023-11-08T07:11:31.758Z,95369.12
2023-11-08T07:13:59.774Z,95369.66
2023-11-08T07:16:27.702Z,95366.81
2023-11-08T07:18:57.316Z,95370.60
2023-11-08T07:21:25.209Z,95368.63
2023-11-08T07:23:53.320Z,95366.21
2023-11-08T07:26:22.249Z,95362.02
2023-11-08T07:28:50.241Z,95363.19
2023-11-08T07:31:17.940Z,95366.08
2023-11-08T07:33:46.089Z,95366.35
2023-11-08T07:36:14.266Z,95370.37
2023-11-08T07:38:42.662Z,95367.45
2023-11-08T07:41:10.627Z,95368.94
2023-11-08T07:43:38.665Z,95372.31
2023-11-08T07:46:06.567Z,95369.04
2023-11-08T07:48:35.510Z,95365.20
2023-11-08T07:51:04.951Z,95370.42
2023-11-08T07:53:33.553Z,95373.25
2023-11-08T07:56:01.782Z,95376.55
2023-11-08T07:58:29.975Z,95381.43
2023-11-08T08:00:58.365Z,95380.80
2023-11-08T08:03:26.495Z,95381.95
2023-11-08T08:05:54.978Z,95389.11
2023-11-08T08:08:24.932Z,95386.89
2023-11-08T08:10:52.936Z,95387.89
2023-11-08T08:13:30.854Z,95392.46
2023-11-08T08:16:01.385Z,95395.16
2023-11-08T08:18:29.737Z,95396.79
2023-11-08T08:20:57.972Z,95393.66
2023-11-08T08:23:25.744Z,95390.23
2023-11-08T08:25:55.173Z,95397.12
2023-11-08T08:28:23.194Z,95394.16
2023-11-08T08:30:51.550Z,95389.98
2023-11-08T08:33:20.673Z,95386.02
2023-11-08T08:35:51.324Z,95391.70
2023-11-08T08:38:21.092Z,95395.98
2023-11-08T08:40:50.638Z,95390.90
2023-11-08T08:43:21.411Z,95384.88
2023-11-08T08:45:49.468Z,95394.45
2023-11-08T08:48:18.144Z,95395.80
2023-11-08T08:50:46.525Z,95397.83
2023-11-08T08:53:14.927Z,95397.72
2023-11-08T08:55:43.703Z,95401.95
2023-11-08T08:58:11.960Z,95396.84
2023-11-08T09:00:40.186Z,95393.81
2023-11-08T09:03:08.351Z,95395.81
2023-11-08T09:05:36.742Z,95400.05
2023-11-08T09:08:04.811Z,95398.98
2023-11-08T09:10:32.886Z,95401.93
2023-11-08T09:13:01.101Z,95405.33
2023-11-08T09:15:32.304Z,95403.90
2023-11-08T09:18:00.359Z,95403.02
2023-11-08T09:20:28.769Z,95409.08
2023-11-08T09:22:57.444Z,95412.27
2023-11-08T09:25:25.501Z,95408.45
2023-11-08T09:27:53.611Z,95411.36
2023-11-08T09:30:21.415Z,95410.04
2023-11-08T09:32:50.054Z,95405.66
2023-11-08T09:35:18.334Z,95407.19
2023-11-08T09:37:46.164Z,95407.33
2023-11-08T09:40:15.989Z,95407.39
2023-11-08T09:42:45.839Z,95406.06
2023-11-08T09:45:16.316Z,95403.28
2023-11-08T09:47:46.338Z,95402.70
2023-11-08T09:50:14.648Z,95400.25
2023-11-08T09:52:42.902Z,95397.83
2023-11-08T09:55:14.352Z,95396.15
2023-11-08T09:57:44.846Z,95397.89
2023-11-08T10:00:13.767Z,95396.70
2023-11-08T10:02:41.941Z,95399.98
2023-11-08T10:05:10.684Z,95399.63
2023-11-08T10:07:40.796Z,95396.67
2023-11-08T10:10:09.334Z,95394.05
2023-11-08T10:12:37.969Z,95387.16
2023-11-08T10:15:08.511Z,95385.77
2023-11-08T10:19:31.122Z,95384.17
2023-11-08T10:20:36.253Z,95386.70
2023-11-08T10:23:08.575Z,95385.94
2023-11-08T10:25:36.595Z,95384.62
2023-11-08T10:28:06.783Z,95381.77
2023-11-08T10:30:39.870Z,95380.69
2023-11-08T10:33:11.954Z,95381.36
2023-11-08T10:35:41.671Z,95379.73
2023-11-08T10:38:13.130Z,95389.39
2023-11-08T10:40:45.652Z,95381.75
2023-11-08T10:43:23.655Z,95378.72
2023-11-08T10:45:51.651Z,95382.69
2023-11-08T10:48:24.444Z,95379.23
2023-11-08T10:50:52.596Z,95374.37
2023-11-08T10:53:21.382Z,95365.86
2023-11-08T10:55:54.212Z,95370.02
2023-11-08T10:58:25.016Z,95368.58
2023-11-08T11:00:57.024Z,95365.88
2023-11-08T11:03:27.729Z,95365.88
2023-11-08T11:05:59.875Z,95359.35
2023-11-08T11:08:29.512Z,95365.98
2023-11-08T11:10:57.633Z,95364.88
2023-11-08T11:13:28.531Z,95366.41
2023-11-08T11:16:23.066Z,95363.98
2023-11-08T11:19:01.854Z,95362.42
2023-11-08T11:21:38.142Z,95364.42
2023-11-08T11:24:44.292Z,95363.45
2023-11-08T11:27:39.147Z,95367.77
2023-11-08T11:30:23.645Z,95372.02
2023-11-08T11:32:52.924Z,95368.31
2023-11-08T11:35:49.371Z,95359.81
2023-11-08T11:38:25.107Z,95360.63
2023-11-08T11:41:19.829Z,95360.70
2023-11-08T11:43:50.709Z,95358.86
2023-11-08T11:46:21.581Z,95356.48
2023-11-08T11:49:10.225Z,95356.81
2023-11-08T11:51:39.442Z,95348.83
2023-11-08T11:54:07.928Z,95351.42
2023-11-08T11:56:36.749Z,95351.84
2023-11-08T11:59:04.755Z,95356.21
2023-11-08T12:01:33.985Z,95353.56
2023-11-08T12:04:01.988Z,95350.50
2023-11-08T12:06:30.277Z,95357.36
2023-11-08T12:08:58.180Z,95360.89
2023-11-08T12:11:27.304Z,95357.66
2023-11-08T12:13:56.419Z,95359.48
2023-11-08T12:16:24.119Z,95359.28
2023-11-08T12:18:53.141Z,95353.11
2023-11-08T12:21:21.525Z,95351.59
2023-11-08T12:23:50.550Z,95352.40
2023-11-08T12:26:20.561Z,95358.52
2023-11-08T12:28:50.263Z,95349.78
2023-11-08T12:31:22.002Z,95355.85
2023-11-08T12:33:50.505Z,95354.26
2023-11-08T12:36:18.372Z,95352.42
2023-11-08T12:38:46.321Z,95350.98
2023-11-08T12:41:15.993Z,95348.79
2023-11-08T12:44:02.835Z,95348.58
2023-11-08T12:46:40.891Z,95344.02
2023-11-08T12:49:16.362Z,95342.29
2023-11-08T12:51:45.421Z,95340.45
2023-11-08T12:54:18.285Z,95340.48
2023-11-08T12:56:47.384Z,95337.27
2023-11-08T12:59:18.189Z,95335.91
2023-11-08T13:01:50.707Z,95334.54
2023-11-08T13:04:19.664Z,95332.54
2023-11-08T13:06:48.522Z,95328.58
2023-11-08T13:09:16.908Z,95323.65
2023-11-08T13:11:44.919Z,95325.09
2023-11-08T13:14:12.680Z,95322.89
2023-11-08T13:16:40.626Z,95323.31
2023-11-08T13:19:09.456Z,95325.14
2023-11-08T13:21:37.540Z,95327.50
2023-11-08T13:24:07.651Z,95329.52
2023-11-08T13:26:36.925Z,95325.64
2023-11-08T13:29:08.223Z,95335.45
2023-11-08T13:31:37.640Z,95331.89
2023-11-08T13:34:07.930Z,95330.37
2023-11-08T13:36:36.561Z,95330.73
2023-11-08T13:39:06.388Z,95339.89
2023-11-08T13:41:36.416Z,95334.95
2023-11-08T13:44:04.308Z,95336.02
2023-11-08T13:46:32.033Z,95331.61
2023-11-08T13:49:01.582Z,95330.85
2023-11-08T13:51:29.776Z,95333.50
2023-11-08T13:53:57.357Z,95335.27
2023-11-08T13:56:26.255Z,95338.59
2023-11-08T13:58:54.011Z,95340.67
2023-11-08T14:01:22.397Z,95348.30
2023-11-08T14:03:50.168Z,95345.23
2023-11-08T14:06:17.792Z,95349.91
2023-11-08T14:08:45.854Z,95347.55
2023-11-08T14:11:16.125Z,95346.66
2023-11-08T14:13:44.057Z,95348.70
2023-11-08T14:16:12.536Z,95351.93
2023-11-08T14:18:41.502Z,95355.98
2023-11-08T14:21:09.372Z,95356.68
2023-11-08T14:23:37.002Z,95356.18
2023-11-08T14:26:07.211Z,95349.70
2023-11-08T14:28:34.894Z,95345.58
2023-11-08T14:31:02.903Z,95351.63
2023-11-08T14:33:30.948Z,95347.23
2023-11-08T14:36:00.870Z,95345.10
2023-11-08T14:38:29.186Z,95346.70
2023-11-08T14:40:57.043Z,95349.20
2023-11-08T14:43:27.893Z,95353.44
2023-11-08T14:45:56.420Z,95351.30
2023-11-08T14:48:26.103Z,95350.77
2023-11-08T14:50:54.543Z,95353.35
2023-11-08T14:53:22.614Z,95355.65
2023-11-08T14:55:50.780Z,95356.23
2023-11-08T14:58:18.614Z,95355.79
2023-11-08T15:00:46.511Z,95354.56
2023-11-08T15:03:15.093Z,95350.34
2023-11-08T15:05:43.325Z,95348.49
2023-11-08T15:09:49.073Z,95346.13
2023-11-08T15:10:59.215Z,95346.38
2023-11-08T15:13:27.126Z,95348.29
2023-11-08T15:15:54.905Z,95345.30
2023-11-08T15:18:26.033Z,95341.89
2023-11-08T15:20:53.822Z,95338.09
2023-11-08T15:23:22.061Z,95338.48
2023-11-08T15:25:50.231Z,95339.91
2023-11-08T15:28:18.306Z,95337.67
2023-11-08T15:30:46.203Z,95341.63
2023-11-08T15:33:14.478Z,95341.09
2023-11-08T15:35:42.471Z,95336.15
2023-11-08T15:38:10.391Z,95334.02
2023-11-08T15:40:38.254Z,95332.85
2023-11-08T15:43:05.990Z,95332.89
2023-11-08T15:45:34.213Z,95336.48
2023-11-08T15:48:02.393Z,95335.90
2023-11-08T15:50:31.132Z,95339.38
2023-11-08T15:52:58.950Z,95341.09
2023-11-08T15:55:28.501Z,95340.35
2023-11-08T15:57:57.115Z,95337.42
2023-11-08T16:00:24.746Z,95337.27
2023-11-08T16:02:52.565Z,95341.59
2023-11-08T16:05:20.243Z,95342.30
2023-11-08T16:07:47.996Z,95345.13
2023-11-08T16:10:16.543Z,95341.61
2023-11-08T16:12:44.274Z,95341.45
2023-11-08T16:15:11.930Z,95341.56
2023-11-08T16:17:39.745Z,95344.86
2023-11-08T16:20:08.661Z,95342.21
2023-11-08T16:22:36.553Z,95340.44
2023-11-08T16:25:04.593Z,95344.76
2023-11-08T16:27:32.303Z,95346.80
2023-11-08T16:30:00.401Z,95345.98
2023-11-08T16:32:38.414Z,95351.67
2023-11-08T16:35:14.289Z,95350.92
2023-11-08T16:37:42.709Z,95350.89
2023-11-08T16:40:12.365Z,95352.02
2023-11-08T16:42:40.417Z,95351.55
2023-11-08T16:45:08.660Z,95353.46
2023-11-08T16:47:36.948Z,95354.55
2023-11-08T16:50:05.508Z,95357.46
2023-11-08T16:52:33.334Z,95357.95
2023-11-08T16:55:01.216Z,95361.02
2023-11-08T16:57:29.115Z,95359.81
2023-11-08T16:59:57.742Z,95357.18
2023-11-08T17:02:25.395Z,95357.04
2023-11-08T17:04:54.136Z,95357.58
2023-11-08T17:07:21.911Z,95357.45
2023-11-08T17:09:49.811Z,95358.24
2023-11-08T17:12:17.660Z,95360.00
2023-11-08T17:14:45.492Z,95361.48
2023-11-08T17:17:13.849Z,95359.30
2023-11-08T17:19:41.838Z,95361.72
2023-11-08T17:22:09.748Z,95360.16
2023-11-08T17:24:37.483Z,95361.63
2023-11-08T17:27:05.555Z,95363.44
2023-11-08T17:29:33.401Z,95364.39
2023-11-08T17:32:01.426Z,95363.63
2023-11-08T17:34:29.777Z,95363.53
2023-11-08T17:36:58.016Z,95365.21
2023-11-08T17:39:25.788Z,95360.44
2023-11-08T17:41:53.504Z,95364.89
2023-11-08T17:44:21.365Z,95367.21
2023-11-08T17:46:49.010Z,95366.79
2023-11-08T17:49:16.897Z,95364.50
2023-11-08T17:51:45.375Z,95367.48
2023-11-08T17:54:13.757Z,95367.40
2023-11-08T17:56:45.672Z,95366.55
2023-11-08T17:59:14.105Z,95363.64
2023-11-08T18:01:43.815Z,95370.82
2023-11-08T18:04:11.815Z,95370.08
2023-11-08T18:06:40.052Z,95368.90
2023-11-08T18:09:11.937Z,95371.29
2023-11-08T18:11:44.205Z,95369.52
2023-11-08T18:14:12.239Z,95366.16
2023-11-08T18:16:39.929Z,95368.90
2023-11-08T18:19:08.656Z,95368.99
2023-11-08T18:21:36.535Z,95365.98
2023-11-08T18:24:04.494Z,95368.04
2023-11-08T18:26:32.604Z,95366.36
2023-11-08T18:29:00.312Z,95361.79
2023-11-08T18:31:27.898Z,95357.52
2023-11-08T18:33:56.200Z,95350.65
2023-11-08T18:36:26.939Z,95355.80
2023-11-08T18:38:55.304Z,95356.27
2023-11-08T18:41:23.899Z,95355.01
2023-11-08T18:43:53.364Z,95357.15
2023-11-08T18:46:22.151Z,95356.46
2023-11-08T18:48:49.972Z,95360.65
2023-11-08T18:51:18.956Z,95355.31
2023-11-08T18:53:46.738Z,95354.45
2023-11-08T18:56:14.593Z,95355.45
2023-11-08T18:58:42.914Z,95359.98
2023-11-08T19:01:11.726Z,95364.54
2023-11-08T19:03:40.074Z,95362.89
2023-11-08T19:06:08.152Z,95365.34
2023-11-08T19:08:35.841Z,95367.44
2023-11-08T19:11:09.021Z,95365.52
2023-11-08T19:13:38.631Z,95365.56
2023-11-08T19:16:10.015Z,95365.91
2023-11-08T19:18:39.748Z,95367.49
2023-11-08T19:21:09.901Z,95365.30
2023-11-08T19:23:37.837Z,95361.48
2023-11-08T19:26:05.948Z,95360.63
2023-11-08T19:28:34.683Z,95359.39
2023-11-08T19:31:02.754Z,95359.85
2023-11-08T19:33:31.145Z,95357.89
2023-11-08T19:36:00.343Z,95351.89
2023-11-08T19:38:28.768Z,95345.59
2023-11-08T19:40:56.610Z,95340.13
2023-11-08T19:43:25.777Z,95344.09
2023-11-08T19:45:53.545Z,95344.08
2023-11-08T19:48:21.440Z,95342.97
2023-11-08T19:50:49.701Z,95343.91
2023-11-08T19:53:17.464Z,95343.02
2023-11-08T19:55:45.370Z,95344.56
2023-11-08T19:58:15.715Z,95348.25
2023-11-08T20:00:43.911Z,95342.66
2023-11-08T20:03:12.716Z,95336.48
2023-11-08T20:05:41.786Z,95337.28
2023-11-08T20:08:10.070Z,95337.24
2023-11-08T20:10:39.196Z,95336.90
2023-11-08T20:13:07.661Z,95339.45
2023-11-08T20:15:36.559Z,95340.64
2023-11-08T20:18:05.924Z,95342.08
2023-11-08T20:20:33.846Z,95342.83
2023-11-08T20:23:02.082Z,95339.92
2023-11-08T20:25:29.845Z,95337.91
2023-11-08T20:27:59.267Z,95335.29
2023-11-08T20:30:28.531Z,95335.05
2023-11-08T20:32:56.272Z,95334.17
2023-11-08T20:35:24.195Z,95331.16
2023-11-08T20:37:51.884Z,95331.13
2023-11-08T20:40:19.814Z,95329.00
2023-11-08T20:42:50.275Z,95322.70
2023-11-08T20:45:19.296Z,95322.80
2023-11-08T20:47:47.790Z,95321.15
2023-11-08T20:50:16.508Z,95320.67
2023-11-08T20:52:44.789Z,95323.45
2023-11-08T20:55:14.605Z,95324.67
2023-11-08T20:57:45.549Z,95320.07
2023-11-08T21:00:14.947Z,95318.08
2023-11-08T21:02:43.448Z,95314.90
2023-11-08T21:05:13.557Z,95316.59
2023-11-08T21:07:41.507Z,95314.24
2023-11-08T21:10:11.345Z,95313.71
2023-11-08T21:12:39.900Z,95311.48
2023-11-08T21:15:09.435Z,95309.52
2023-11-08T21:17:37.268Z,95306.68
2023-11-08T21:20:06.307Z,95300.23
2023-11-08T21:22:35.137Z,95297.98
2023-11-08T21:25:03.094Z,95296.47
2023-11-08T21:27:31.662Z,95297.04
2023-11-08T21:30:00.910Z,95292.00
2023-11-08T21:32:28.690Z,95294.52
2023-11-08T21:34:57.643Z,95292.35
2023-11-08T21:37:25.806Z,95290.65
2023-11-08T21:39:56.313Z,95290.20
2023-11-08T21:42:24.163Z,95283.84
2023-11-08T21:44:51.730Z,95283.23
2023-11-08T21:47:19.651Z,95281.52
2023-11-08T21:49:48.132Z,95277.92
2023-11-08T21:52:15.918Z,95278.51
2023-11-08T21:54:46.229Z,95278.23
2023-11-08T21:57:14.313Z,95280.70
2023-11-08T21:59:42.863Z,95277.95
2023-11-08T22:02:11.045Z,95277.52
2023-11-08T22:04:38.767Z,95273.30
2023-11-08T22:07:07.366Z,95273.46
2023-11-08T22:09:35.494Z,95270.96
2023-11-08T22:12:03.237Z,95267.49
2023-11-08T22:14:30.801Z,95264.21
2023-11-08T22:16:59.545Z,95262.42
2023-11-08T22:19:28.472Z,95259.38
2023-11-08T22:21:56.282Z,95260.38
2023-11-08T22:24:23.895Z,95262.32
2023-11-08T22:26:52.179Z,95259.97
2023-11-08T22:29:20.538Z,95255.56
2023-11-08T22:31:48.307Z,95252.86
2023-11-08T22:34:16.481Z,95250.68
2023-11-08T22:36:44.342Z,95248.55
2023-11-08T22:39:12.226Z,95247.23
2023-11-08T22:41:41.009Z,95250.74
2023-11-08T22:44:09.557Z,95250.31
2023-11-08T22:46:37.535Z,95248.77
2023-11-08T22:49:05.818Z,95244.30
2023-11-08T22:51:38.664Z,95241.40
2023-11-08T22:54:08.314Z,95241.68
2023-11-08T22:56:37.496Z,95237.94
2023-11-08T22:59:05.702Z,95236.23
2023-11-08T23:01:34.265Z,95237.47
2023-11-08T23:04:04.431Z,95237.14
2023-11-08T23:06:33.516Z,95237.50
2023-11-08T23:09:01.685Z,95233.67
2023-11-08T23:11:33.471Z,95232.55
2023-11-08T23:14:01.664Z,95228.81
2023-11-08T23:16:29.545Z,95230.46
2023-11-08T23:18:57.529Z,95229.11
2023-11-08T23:21:25.612Z,95225.06
2023-11-08T23:23:54.150Z,95223.18
2023-11-08T23:26:21.995Z,95219.23
2023-11-08T23:28:49.495Z,95216.95
2023-11-08T23:31:20.916Z,95211.66
2023-11-08T23:33:49.119Z,95205.21
2023-11-08T23:36:19.192Z,95203.45
2023-11-08T23:38:47.328Z,95204.58
2023-11-08T23:41:16.155Z,95207.30
2023-11-08T23:43:47.173Z,95204.52
2023-11-08T23:46:17.732Z,95201.94
2023-11-08T23:48:48.089Z,95197.54
2023-11-08T23:51:16.188Z,95193.83
2023-11-08T23:53:44.311Z,95193.58
2023-11-08T23:56:14.605Z,95188.46
2023-11-08T23:58:43.380Z,95190.80
